Portada
METAR-TAF:

METAR-TAF

Aeroports :

Puerto Francisco de Orellana, Equador

latitud: 00-27-46S, longitud: 076-59-12W, altitud: 254 m

Observació

L'informe es va fer fa 1 hora i 10 minuts, a les 19:00 UTC
Vent 6 kt del Oest/Sud-Oest
Temperatura 28°C
Humitat 74%
Pressió 1015 hPa
Visibilitat 10 km o més
Cel ennuvolat a una alçada de 2500 ft
Cel ennuvolat a una alçada de 10000 ft

METAR: SECO 261900Z 24006KT 9999 BKN025 BKN100 28/23 Q1015 RMK A3000

Hora: 15:10 (20:10 UTC)


TAF: manca

Observacions i pronòstics meteorològics de més de 4000 aeroports (METAR i TAF).

Les estacions disponibles són els punts grocs i vermells al mapa.

Posi el ratolí al punt desitjat per veure el nom de l'estació.

Feu clic per veure les observacions i els pronòstics meteorològics.

Per canviar el mapa: feu clic els botons verds amb una creu de color negre per apropar; al botó verd amb un guió per allunyar la imatge; o en les fletxes verdes per a mapes adjacents.


METAR-TAF: